createdAt,value
2023-01-12T00:01:57.161Z,11.80
2023-01-12T00:04:25.008Z,15.90
2023-01-12T00:06:52.745Z,16.40
2023-01-12T00:09:20.490Z,9.30
2023-01-12T00:11:48.337Z,8.47
2023-01-12T00:14:16.130Z,10.70
2023-01-12T00:16:44.197Z,7.77
2023-01-12T00:19:15.646Z,12.57
2023-01-12T00:21:55.250Z,8.13
2023-01-12T00:24:24.487Z,11.73
2023-01-12T00:26:54.240Z,13.83
2023-01-12T00:29:22.552Z,13.67
2023-01-12T00:31:50.516Z,11.47
2023-01-12T00:34:19.715Z,10.53
2023-01-12T00:36:48.671Z,12.03
2023-01-12T00:39:17.423Z,12.13
2023-01-12T00:42:03.125Z,10.57
2023-01-12T00:44:48.991Z,11.23
2023-01-12T00:47:17.989Z,11.10
2023-01-12T00:49:47.649Z,8.97
2023-01-12T00:52:29.386Z,15.07
2023-01-12T00:54:58.048Z,13.47
2023-01-12T00:57:25.814Z,15.67
2023-01-12T00:59:55.080Z,11.23
2023-01-12T01:02:23.659Z,6.97
2023-01-12T01:04:52.790Z,14.87
2023-01-12T01:07:21.652Z,16.80
2023-01-12T01:09:49.804Z,12.17
2023-01-12T01:12:17.862Z,9.23
2023-01-12T01:14:45.709Z,14.83
2023-01-12T01:17:13.434Z,9.60
2023-01-12T01:19:41.114Z,12.87
2023-01-12T01:22:10.169Z,16.13
2023-01-12T01:24:37.922Z,8.27
2023-01-12T01:27:05.643Z,11.07
2023-01-12T01:29:33.304Z,12.83
2023-01-12T01:32:01.009Z,14.80
2023-01-12T01:34:28.858Z,9.80
2023-01-12T01:36:56.521Z,10.87
2023-01-12T01:39:25.577Z,9.90
2023-01-12T01:41:53.341Z,9.50
2023-01-12T01:44:51.402Z,15.33
2023-01-12T01:47:26.979Z,7.90
2023-01-12T01:50:00.798Z,14.17
2023-01-12T01:52:32.614Z,11.73
2023-01-12T01:55:06.768Z,10.47
2023-01-12T01:57:40.770Z,12.17
2023-01-12T02:00:11.633Z,14.13
2023-01-12T02:02:40.238Z,12.40
2023-01-12T02:05:08.892Z,15.67
2023-01-12T02:07:36.899Z,12.00
2023-01-12T02:10:06.879Z,10.60
2023-01-12T02:12:52.167Z,7.17
2023-01-12T02:15:37.433Z,9.67
2023-01-12T02:18:15.297Z,13.97
2023-01-12T02:20:52.122Z,18.90
2023-01-12T02:23:43.432Z,14.50
2023-01-12T02:26:43.703Z,14.60
2023-01-12T02:29:46.704Z,17.37
2023-01-12T02:32:27.277Z,11.63
2023-01-12T02:35:06.392Z,10.00
2023-01-12T02:37:39.784Z,14.87
2023-01-12T02:40:12.250Z,14.47
2023-01-12T02:42:41.655Z,12.67
2023-01-12T02:45:20.536Z,10.37
2023-01-12T02:47:56.611Z,16.50
2023-01-12T02:50:32.776Z,13.33
2023-01-12T02:53:07.448Z,19.20
2023-01-12T02:55:35.843Z,9.47
2023-01-12T02:58:07.453Z,11.53
2023-01-12T03:00:38.875Z,11.10
2023-01-12T03:03:08.102Z,10.30
2023-01-12T03:05:35.779Z,14.77
2023-01-12T03:08:06.730Z,13.30
2023-01-12T03:11:02.784Z,13.80
2023-01-12T03:13:34.309Z,9.90
2023-01-12T03:16:03.781Z,13.53
2023-01-12T03:18:36.323Z,10.77
2023-01-12T03:21:08.560Z,12.43
2023-01-12T03:23:42.088Z,8.73
2023-01-12T03:26:14.168Z,12.03
2023-01-12T03:28:47.152Z,9.80
2023-01-12T03:31:16.753Z,10.00
2023-01-12T03:33:47.105Z,11.33
2023-01-12T03:36:30.480Z,14.57
2023-01-12T03:39:09.936Z,11.50
2023-01-12T03:41:47.284Z,13.80
2023-01-12T03:44:21.584Z,15.67
2023-01-12T03:46:56.615Z,15.70
2023-01-12T03:49:33.555Z,9.07
2023-01-12T03:52:03.298Z,8.03
2023-01-12T03:54:33.124Z,12.37
2023-01-12T03:57:02.696Z,13.00
2023-01-12T03:59:30.481Z,16.30
2023-01-12T04:01:58.348Z,13.87
2023-01-12T04:04:27.387Z,13.77
2023-01-12T04:06:55.083Z,10.63
2023-01-12T04:09:25.413Z,12.00
2023-01-12T04:12:11.772Z,12.67
2023-01-12T04:14:40.515Z,7.90
2023-01-12T04:17:10.097Z,7.10
2023-01-12T04:19:39.241Z,15.57
2023-01-12T04:22:24.673Z,15.37
2023-01-12T04:24:52.476Z,9.83
2023-01-12T04:27:20.145Z,11.10
2023-01-12T04:29:47.848Z,9.60
2023-01-12T04:32:15.548Z,14.70
2023-01-12T04:34:45.156Z,11.93
2023-01-12T04:37:12.902Z,13.50
2023-01-12T04:39:40.625Z,10.57
2023-01-12T04:42:29.001Z,7.47
2023-01-12T04:44:56.665Z,6.93
2023-01-12T04:47:27.158Z,10.70
2023-01-12T04:49:56.342Z,12.77
2023-01-12T04:52:23.972Z,7.87
2023-01-12T04:54:51.663Z,8.87
2023-01-12T04:57:19.306Z,11.50
2023-01-12T04:59:47.024Z,10.83
2023-01-12T05:02:14.782Z,15.10
2023-01-12T05:04:42.784Z,18.63
2023-01-12T05:07:12.091Z,7.20
2023-01-12T05:09:57.476Z,10.47
2023-01-12T05:12:25.136Z,11.00
2023-01-12T05:14:53.129Z,9.63
2023-01-12T05:17:20.843Z,9.63
2023-01-12T05:19:49.622Z,11.33
2023-01-12T05:22:18.797Z,10.83
2023-01-12T05:24:46.561Z,5.50
2023-01-12T05:27:14.293Z,8.40
2023-01-12T05:29:42.047Z,13.67
2023-01-12T05:32:09.725Z,8.90
2023-01-12T05:34:37.415Z,11.67
2023-01-12T05:37:05.084Z,11.10
2023-01-12T05:39:34.162Z,6.67
2023-01-12T05:42:19.512Z,10.03
2023-01-12T05:44:47.256Z,9.57
2023-01-12T05:47:14.940Z,8.73
2023-01-12T05:49:42.697Z,9.70
2023-01-12T05:52:10.457Z,5.90
2023-01-12T05:54:39.488Z,7.43
2023-01-12T05:57:07.147Z,9.43
2023-01-12T05:59:34.850Z,8.30
2023-01-12T06:02:02.466Z,6.97
2023-01-12T06:04:32.062Z,7.43
2023-01-12T06:06:59.819Z,10.20
2023-01-12T06:09:27.491Z,6.60
2023-01-12T06:12:14.308Z,9.07
2023-01-12T06:14:42.058Z,6.20
2023-01-12T06:17:09.741Z,9.20
2023-01-12T06:19:37.649Z,11.97
2023-01-12T06:22:05.580Z,11.67
2023-01-12T06:24:33.219Z,10.80
2023-01-12T06:27:02.498Z,9.07
2023-01-12T06:29:30.299Z,12.23
2023-01-12T06:31:58.011Z,8.30
2023-01-12T06:34:25.758Z,11.50
2023-01-12T06:36:53.468Z,8.93
2023-01-12T06:39:21.134Z,12.20
2023-01-12T06:42:06.427Z,11.37
2023-01-12T06:44:35.548Z,10.57
2023-01-12T06:47:03.388Z,10.97
2023-01-12T06:49:31.131Z,9.13
2023-01-12T06:51:58.846Z,6.50
2023-01-12T06:54:26.613Z,7.83
2023-01-12T06:56:55.345Z,11.07
2023-01-12T06:59:23.076Z,6.03
2023-01-12T07:01:52.415Z,8.73
2023-01-12T07:04:20.228Z,12.97
2023-01-12T07:06:48.260Z,7.93
2023-01-12T07:09:16.064Z,7.73
2023-01-12T07:11:43.900Z,7.67
2023-01-12T07:14:11.599Z,12.63
2023-01-12T07:16:40.226Z,12.77
2023-01-12T07:19:09.561Z,13.13
2023-01-12T07:21:37.298Z,7.47
2023-01-12T07:24:05.128Z,9.67
2023-01-12T07:26:33.058Z,9.40
2023-01-12T07:29:00.786Z,6.83
2023-01-12T07:31:28.909Z,9.03
2023-01-12T07:33:56.714Z,8.43
2023-01-12T07:36:26.719Z,14.23
2023-01-12T07:38:54.644Z,8.20
2023-01-12T07:41:39.709Z,10.30
2023-01-12T07:44:07.404Z,13.90
2023-01-12T07:46:35.633Z,9.90
2023-01-12T07:49:03.441Z,13.33
2023-01-12T07:51:32.511Z,10.00
2023-01-12T07:54:00.271Z,8.70
2023-01-12T07:56:29.323Z,8.00
2023-01-12T07:58:57.638Z,10.80
2023-01-12T08:01:25.667Z,11.03
2023-01-12T08:03:53.625Z,10.17
2023-01-12T08:06:21.339Z,12.93
2023-01-12T08:08:51.196Z,10.77
2023-01-12T08:11:19.153Z,9.10
2023-01-12T08:13:46.900Z,10.27
2023-01-12T08:16:19.688Z,9.73
2023-01-12T08:18:53.717Z,6.20
2023-01-12T08:21:25.427Z,7.30
2023-01-12T08:23:57.654Z,8.93
2023-01-12T08:26:30.244Z,6.43
2023-01-12T08:29:03.831Z,4.83
2023-01-12T08:31:33.639Z,4.17
2023-01-12T08:34:11.441Z,5.97
2023-01-12T08:36:44.158Z,4.20
2023-01-12T08:39:13.774Z,1.60
2023-01-12T08:41:42.353Z,3.23
2023-01-12T08:44:11.248Z,3.70
2023-01-12T08:46:41.328Z,4.47
2023-01-12T08:49:11.891Z,4.63
2023-01-12T08:51:45.604Z,2.90
2023-01-12T08:54:18.991Z,5.30
2023-01-12T08:56:47.083Z,1.83
2023-01-12T08:59:14.946Z,5.17
2023-01-12T09:01:43.386Z,4.57
2023-01-12T09:04:11.184Z,3.33
2023-01-12T09:06:40.943Z,3.13
2023-01-12T09:09:10.877Z,2.70
2023-01-12T09:11:43.491Z,5.90
2023-01-12T09:14:11.622Z,4.13
2023-01-12T09:16:39.636Z,3.17
2023-01-12T09:19:08.376Z,2.50
2023-01-12T09:21:38.784Z,3.37
2023-01-12T09:24:07.345Z,4.67
2023-01-12T09:26:39.368Z,5.47
2023-01-12T09:29:09.531Z,4.03
2023-01-12T09:31:38.708Z,4.40
2023-01-12T09:34:06.410Z,3.23
2023-01-12T09:36:37.041Z,6.00
2023-01-12T09:39:06.162Z,5.27
2023-01-12T09:41:55.897Z,6.93
2023-01-12T09:44:47.048Z,7.70
2023-01-12T09:47:22.755Z,6.33
2023-01-12T09:50:01.369Z,7.27
2023-01-12T09:52:40.420Z,4.03
2023-01-12T09:55:15.935Z,8.50
2023-01-12T09:58:06.765Z,3.43
2023-01-12T10:00:35.927Z,9.27
2023-01-12T10:03:25.686Z,4.60
2023-01-12T10:05:55.728Z,13.27
2023-01-12T10:08:32.666Z,4.17
2023-01-12T10:11:11.484Z,7.10
2023-01-12T10:14:03.259Z,4.50
2023-01-12T10:16:39.325Z,3.23
2023-01-12T10:19:15.854Z,7.63
2023-01-12T10:21:44.415Z,6.17
2023-01-12T10:24:13.583Z,6.70
2023-01-12T10:26:44.325Z,6.27
2023-01-12T10:29:13.155Z,4.10
2023-01-12T10:31:42.292Z,3.83
2023-01-12T10:34:14.108Z,5.47
2023-01-12T10:36:49.246Z,2.63
2023-01-12T10:39:34.921Z,6.70
2023-01-12T10:42:40.895Z,6.03
2023-01-12T10:45:17.348Z,2.73
2023-01-12T10:47:47.848Z,7.27
2023-01-12T10:50:27.968Z,5.63
2023-01-12T10:53:01.086Z,4.43
2023-01-12T10:55:33.426Z,5.47
2023-01-12T10:58:01.836Z,7.67
2023-01-12T11:00:30.723Z,2.07
2023-01-12T11:02:59.891Z,4.23
2023-01-12T11:05:31.352Z,3.27
2023-01-12T11:07:59.691Z,2.87
2023-01-12T11:10:30.387Z,2.23
2023-01-12T11:12:59.869Z,1.33
2023-01-12T11:15:29.622Z,2.47
2023-01-12T11:18:17.253Z,2.80
2023-01-12T11:20:50.030Z,0.93
2023-01-12T11:23:24.947Z,1.53
2023-01-12T11:25:54.271Z,2.47
2023-01-12T11:28:29.244Z,1.30
2023-01-12T11:31:01.904Z,1.93
2023-01-12T11:33:37.691Z,0.43
2023-01-12T11:36:07.823Z,2.93
2023-01-12T11:38:38.955Z,1.27
2023-01-12T11:41:11.019Z,1.40
2023-01-12T11:43:55.860Z,1.07
2023-01-12T11:46:27.813Z,1.20
2023-01-12T11:49:04.262Z,1.57
2023-01-12T11:51:32.119Z,1.57
2023-01-12T11:54:00.466Z,1.43
2023-01-12T11:57:09.435Z,2.37
2023-01-12T11:59:42.628Z,2.53
2023-01-12T12:02:32.942Z,1.70
2023-01-12T12:05:10.433Z,1.10
2023-01-12T12:07:55.984Z,3.47
2023-01-12T12:10:27.888Z,4.70
2023-01-12T12:13:27.277Z,2.20
2023-01-12T12:16:06.017Z,0.60
2023-01-12T12:18:47.009Z,2.73
2023-01-12T12:21:27.004Z,1.23
2023-01-12T12:24:03.784Z,1.27
2023-01-12T12:26:36.474Z,2.33
2023-01-12T12:29:19.311Z,2.17
2023-01-12T12:32:07.549Z,1.10
2023-01-12T12:34:51.618Z,1.57
2023-01-12T12:37:34.213Z,1.30
2023-01-12T12:40:11.196Z,1.70
2023-01-12T12:43:10.567Z,3.03
2023-01-12T12:45:46.630Z,0.80
2023-01-12T12:48:17.184Z,0.73
2023-01-12T12:50:51.088Z,1.00
2023-01-12T12:53:26.442Z,1.50
2023-01-12T12:55:58.749Z,0.47
2023-01-12T12:58:45.853Z,0.20
2023-01-12T13:01:39.513Z,2.73
2023-01-12T13:04:09.596Z,0.47
2023-01-12T13:06:39.399Z,0.47
2023-01-12T13:09:38.059Z,1.93
2023-01-12T13:12:32.002Z,1.10
2023-01-12T13:15:20.325Z,1.07
2023-01-12T13:17:50.120Z,2.47
2023-01-12T13:21:02.321Z,0.97
2023-01-12T13:23:52.309Z,1.63
2023-01-12T13:26:52.254Z,3.47
2023-01-12T13:29:50.483Z,0.50
2023-01-12T13:32:42.915Z,1.07
2023-01-12T13:35:53.133Z,1.20
2023-01-12T13:38:33.434Z,1.07
2023-01-12T13:41:17.701Z,0.77
2023-01-12T13:43:53.785Z,1.87
2023-01-12T13:46:24.913Z,1.33
2023-01-12T13:48:54.489Z,0.97
2023-01-12T13:51:26.725Z,1.57
2023-01-12T13:54:01.847Z,0.57
2023-01-12T13:56:29.733Z,2.70
2023-01-12T13:59:02.238Z,2.03
2023-01-12T14:01:34.314Z,2.53
2023-01-12T14:04:22.720Z,1.63
2023-01-12T14:07:01.068Z,1.97
2023-01-12T14:09:41.294Z,2.30
2023-01-12T14:12:36.322Z,1.40
2023-01-12T14:15:43.868Z,0.80
2023-01-12T14:18:15.337Z,2.13
2023-01-12T14:20:48.019Z,2.20
2023-01-12T14:23:19.059Z,2.10
2023-01-12T14:25:47.622Z,1.63
2023-01-12T14:28:19.646Z,1.13
2023-01-12T14:30:52.106Z,1.40
2023-01-12T14:33:21.816Z,1.20
2023-01-12T14:35:54.747Z,0.87
2023-01-12T14:38:25.748Z,0.83
2023-01-12T14:41:00.095Z,1.00
2023-01-12T14:43:48.717Z,0.17
2023-01-12T14:46:26.516Z,0.63
2023-01-12T14:49:00.250Z,0.70
2023-01-12T14:51:32.342Z,0.70
2023-01-12T14:54:03.049Z,1.10
2023-01-12T14:56:38.754Z,1.43
2023-01-12T14:59:08.961Z,1.60
2023-01-12T15:01:40.035Z,0.87
2023-01-12T15:04:14.840Z,1.50
2023-01-12T15:06:44.961Z,0.77
2023-01-12T15:09:27.331Z,2.00
2023-01-12T15:11:55.055Z,1.00
2023-01-12T15:14:26.045Z,0.53
2023-01-12T15:17:13.742Z,1.23
2023-01-12T15:19:59.189Z,1.73
2023-01-12T15:22:46.172Z,1.40
2023-01-12T15:25:34.501Z,0.70
2023-01-12T15:28:02.584Z,0.93
2023-01-12T15:30:31.416Z,0.43
2023-01-12T15:33:00.808Z,1.77
2023-01-12T15:35:30.289Z,1.80
2023-01-12T15:37:59.384Z,2.60
2023-01-12T15:40:29.820Z,0.93
2023-01-12T15:42:59.144Z,1.47
2023-01-12T15:45:34.432Z,0.90
2023-01-12T15:48:04.079Z,2.60
2023-01-12T15:50:32.463Z,1.23
2023-01-12T15:53:01.664Z,0.40
2023-01-12T15:55:31.319Z,0.50
2023-01-12T15:57:59.133Z,0.70
2023-01-12T16:00:26.939Z,1.63
2023-01-12T16:02:54.709Z,0.87
2023-01-12T16:05:26.262Z,0.70
2023-01-12T16:07:54.546Z,0.70
2023-01-12T16:10:22.597Z,1.10
2023-01-12T16:12:50.542Z,1.17
2023-01-12T16:15:20.341Z,1.30
2023-01-12T16:17:48.739Z,0.90
2023-01-12T16:20:18.184Z,0.80
2023-01-12T16:22:47.752Z,3.67
2023-01-12T16:25:16.291Z,0.80
2023-01-12T16:27:44.355Z,1.27
2023-01-12T16:30:16.379Z,1.07
2023-01-12T16:32:46.593Z,2.30
2023-01-12T16:35:15.781Z,3.33
2023-01-12T16:37:44.726Z,1.70
2023-01-12T16:40:16.103Z,1.60
2023-01-12T16:42:43.888Z,2.80
2023-01-12T16:45:12.027Z,0.87
2023-01-12T16:47:39.736Z,3.57
2023-01-12T16:50:08.467Z,1.83
2023-01-12T16:52:36.413Z,1.13
2023-01-12T16:55:04.857Z,0.90
2023-01-12T16:57:37.358Z,2.10
2023-01-12T17:00:05.953Z,2.23
2023-01-12T17:02:34.068Z,1.60
2023-01-12T17:05:02.254Z,2.50
2023-01-12T17:07:30.123Z,2.90
2023-01-12T17:09:59.139Z,12.73
2023-01-12T17:12:27.100Z,1.47
2023-01-12T17:14:56.637Z,1.33
2023-01-12T17:17:24.401Z,4.23
2023-01-12T17:19:52.988Z,1.73
2023-01-12T17:22:21.347Z,3.60
2023-01-12T17:24:49.175Z,2.13
2023-01-12T17:27:17.093Z,15.80
2023-01-12T17:29:45.142Z,1.73
2023-01-12T17:32:15.371Z,1.23
2023-01-12T17:34:43.815Z,2.57
2023-01-12T17:37:12.058Z,2.13
2023-01-12T17:39:41.388Z,1.80
2023-01-12T17:42:28.720Z,1.40
2023-01-12T17:44:56.538Z,1.23
2023-01-12T17:47:25.718Z,1.17
2023-01-12T17:49:55.157Z,2.23
2023-01-12T17:52:23.067Z,2.70
2023-01-12T17:54:50.765Z,1.63
2023-01-12T17:57:18.515Z,2.27
2023-01-12T17:59:46.499Z,1.73
2023-01-12T18:02:15.217Z,1.77
2023-01-12T18:04:44.546Z,1.77
2023-01-12T18:07:12.309Z,2.93
2023-01-12T18:09:41.859Z,3.13
2023-01-12T18:12:12.393Z,1.40
2023-01-12T18:14:40.305Z,1.90
2023-01-12T18:17:09.279Z,1.93
2023-01-12T18:19:37.126Z,3.30
2023-01-12T18:22:07.163Z,1.53
2023-01-12T18:24:35.214Z,1.60
2023-01-12T18:27:03.470Z,2.00
2023-01-12T18:29:34.180Z,2.33
2023-01-12T18:32:01.957Z,0.87
2023-01-12T18:34:30.125Z,1.30
2023-01-12T18:36:57.885Z,1.03
2023-01-12T18:39:27.084Z,1.60
2023-01-12T18:42:12.663Z,2.67
2023-01-12T18:44:40.425Z,3.50
2023-01-12T18:47:26.015Z,1.23
2023-01-12T18:49:57.475Z,2.07
2023-01-12T18:52:44.719Z,1.77
2023-01-12T18:55:13.787Z,1.73
2023-01-12T18:57:41.508Z,2.20
2023-01-12T19:00:15.739Z,1.60
2023-01-12T19:02:43.788Z,1.17
2023-01-12T19:05:20.531Z,1.57
2023-01-12T19:08:04.494Z,1.07
2023-01-12T19:10:34.249Z,1.10
2023-01-12T19:13:19.646Z,1.03
2023-01-12T19:16:05.182Z,1.00
2023-01-12T19:18:35.547Z,1.33
2023-01-12T19:21:17.153Z,1.67
2023-01-12T19:24:02.169Z,1.13
2023-01-12T19:26:48.822Z,4.07
2023-01-12T19:29:16.707Z,2.13
2023-01-12T19:31:44.508Z,1.47
2023-01-12T19:34:12.252Z,3.00
2023-01-12T19:36:40.932Z,5.17
2023-01-12T19:39:10.400Z,1.10
2023-01-12T19:41:57.158Z,1.97
2023-01-12T19:44:24.893Z,2.10
2023-01-12T19:46:52.617Z,2.50
2023-01-12T19:49:20.651Z,2.27
2023-01-12T19:51:48.741Z,1.10
2023-01-12T19:54:16.469Z,3.40
2023-01-12T19:56:47.524Z,3.80
2023-01-12T19:59:15.365Z,1.53
2023-01-12T20:01:43.141Z,1.67
2023-01-12T20:04:10.841Z,3.03
2023-01-12T20:06:38.520Z,2.07
2023-01-12T20:09:06.201Z,2.30
2023-01-12T20:11:33.985Z,3.90
2023-01-12T20:14:03.067Z,1.47
2023-01-12T20:16:30.873Z,2.50
2023-01-12T20:18:59.559Z,2.40
2023-01-12T20:21:27.243Z,2.23
2023-01-12T20:23:54.940Z,2.50
2023-01-12T20:26:22.686Z,3.33
2023-01-12T20:28:50.376Z,4.70
2023-01-12T20:31:21.045Z,3.83
2023-01-12T20:33:49.031Z,2.40
2023-01-12T20:36:18.654Z,3.60
2023-01-12T20:38:47.301Z,2.23
2023-01-12T20:41:15.054Z,1.97
2023-01-12T20:43:42.717Z,2.60
2023-01-12T20:46:11.826Z,2.83
2023-01-12T20:48:42.601Z,4.73
2023-01-12T20:51:12.259Z,4.53
2023-01-12T20:53:40.366Z,2.13
2023-01-12T20:56:09.526Z,2.80
2023-01-12T20:58:37.687Z,2.93
2023-01-12T21:01:10.524Z,5.27
2023-01-12T21:03:38.805Z,3.77
2023-01-12T21:06:11.057Z,2.70
2023-01-12T21:08:39.409Z,1.30
2023-01-12T21:11:07.682Z,2.37
2023-01-12T21:13:35.639Z,3.10
2023-01-12T21:16:06.824Z,3.70
2023-01-12T21:18:35.699Z,1.13
2023-01-12T21:21:04.059Z,2.97
2023-01-12T21:23:33.342Z,3.33
2023-01-12T21:26:01.201Z,2.50
2023-01-12T21:28:30.402Z,2.40
2023-01-12T21:31:01.383Z,2.23
2023-01-12T21:33:29.129Z,1.67
2023-01-12T21:35:57.246Z,2.07
2023-01-12T21:38:25.503Z,3.40
2023-01-12T21:40:55.015Z,2.27
2023-01-12T21:43:23.010Z,2.80
2023-01-12T21:45:52.981Z,2.93
2023-01-12T21:48:22.871Z,4.23
2023-01-12T21:50:50.787Z,4.13
2023-01-12T21:53:21.104Z,3.40
2023-01-12T21:55:57.036Z,1.27
2023-01-12T21:58:25.645Z,1.83
2023-01-12T22:00:53.856Z,1.27
2023-01-12T22:03:24.992Z,2.70
2023-01-12T22:05:52.731Z,2.17
2023-01-12T22:08:20.665Z,2.30
2023-01-12T22:10:48.453Z,2.30
2023-01-12T22:13:18.663Z,2.50
2023-01-12T22:15:50.797Z,4.27
2023-01-12T22:18:18.538Z,4.13
2023-01-12T22:20:46.278Z,2.67
2023-01-12T22:23:14.199Z,2.07
2023-01-12T22:25:41.944Z,3.67
2023-01-12T22:28:09.638Z,2.70
2023-01-12T22:30:38.657Z,3.97
2023-01-12T22:33:06.327Z,4.90
2023-01-12T22:35:34.554Z,2.63
2023-01-12T22:38:02.321Z,3.63
2023-01-12T22:40:30.435Z,2.33
2023-01-12T22:43:15.689Z,3.73
2023-01-12T22:45:44.859Z,6.13
2023-01-12T22:48:12.537Z,3.40
2023-01-12T22:50:40.287Z,4.70
2023-01-12T22:53:07.963Z,6.93
2023-01-12T22:55:35.741Z,4.97
2023-01-12T22:58:03.459Z,3.07
2023-01-12T23:00:31.271Z,2.57
2023-01-12T23:03:03.250Z,2.73
2023-01-12T23:05:35.153Z,1.70
2023-01-12T23:08:03.803Z,2.07
2023-01-12T23:10:31.525Z,5.07
2023-01-12T23:13:15.950Z,3.60
2023-01-12T23:15:46.520Z,4.50
2023-01-12T23:18:17.117Z,1.87
2023-01-12T23:20:44.993Z,1.80
2023-01-12T23:23:13.122Z,3.30
2023-01-12T23:25:44.532Z,3.00
2023-01-12T23:28:14.135Z,2.03
2023-01-12T23:30:42.148Z,4.83
2023-01-12T23:33:10.809Z,3.17
2023-01-12T23:35:42.038Z,3.17
2023-01-12T23:38:15.167Z,2.23
2023-01-12T23:40:43.214Z,1.93
2023-01-12T23:43:10.989Z,1.60
2023-01-12T23:45:38.672Z,2.33
2023-01-12T23:48:07.795Z,2.80
2023-01-12T23:50:35.604Z,2.17
2023-01-12T23:53:05.000Z,1.47
2023-01-12T23:55:32.745Z,1.83
2023-01-12T23:58:00.478Z,3.27
